sensor_id;sensor_type;location;lat;lon;timestamp;pressure;altitude;pressure_sealevel;temperature;humidity
77799;BME280;66989;50.426;15.352;2023-09-19T00:02:12;97621.13;;;18.05;96.10
77799;BME280;66989;50.426;15.352;2023-09-19T00:04:37;97620.84;;;18.00;95.97
77799;BME280;66989;50.426;15.352;2023-09-19T00:07:05;97616.03;;;17.95;96.41
77799;BME280;66989;50.426;15.352;2023-09-19T00:09:30;97631.72;;;17.90;97.04
77799;BME280;66989;50.426;15.352;2023-09-19T00:12:02;97635.41;;;17.89;97.77
77799;BME280;66989;50.426;15.352;2023-09-19T00:14:28;97625.38;;;17.91;97.71
77799;BME280;66989;50.426;15.352;2023-09-19T00:16:53;97632.41;;;17.92;97.60
77799;BME280;66989;50.426;15.352;2023-09-19T00:19:19;97635.22;;;17.91;97.87
77799;BME280;66989;50.426;15.352;2023-09-19T00:21:45;97622.06;;;17.89;98.07
77799;BME280;66989;50.426;15.352;2023-09-19T00:24:12;97620.06;;;17.91;98.27
77799;BME280;66989;50.426;15.352;2023-09-19T00:26:39;97623.53;;;17.92;97.99
77799;BME280;66989;50.426;15.352;2023-09-19T00:29:04;97625.03;;;17.94;97.80
77799;BME280;66989;50.426;15.352;2023-09-19T00:31:29;97625.69;;;17.96;97.47
77799;BME280;66989;50.426;15.352;2023-09-19T00:33:55;97631.03;;;17.96;97.22
77799;BME280;66989;50.426;15.352;2023-09-19T00:36:22;97632.41;;;17.92;96.59
77799;BME280;66989;50.426;15.352;2023-09-19T00:38:48;97630.91;;;17.89;96.49
77799;BME280;66989;50.426;15.352;2023-09-19T00:41:13;97632.25;;;17.85;96.45
77799;BME280;66989;50.426;15.352;2023-09-19T00:43:39;97633.81;;;17.80;96.42
77799;BME280;66989;50.426;15.352;2023-09-19T00:46:05;97637.47;;;17.79;96.49
77799;BME280;66989;50.426;15.352;2023-09-19T00:48:32;97635.84;;;17.78;96.91
77799;BME280;66989;50.426;15.352;2023-09-19T00:51:05;97633.31;;;17.76;97.04
77799;BME280;66989;50.426;15.352;2023-09-19T00:53:30;97621.81;;;17.76;96.88
77799;BME280;66989;50.426;15.352;2023-09-19T00:55:56;97632.50;;;17.76;96.98
77799;BME280;66989;50.426;15.352;2023-09-19T00:58:22;97634.34;;;17.75;96.95
77799;BME280;66989;50.426;15.352;2023-09-19T01:00:50;97635.34;;;17.74;96.70
77799;BME280;66989;50.426;15.352;2023-09-19T01:03:17;97638.34;;;17.71;97.01
77799;BME280;66989;50.426;15.352;2023-09-19T01:05:43;97641.00;;;17.71;96.91
77799;BME280;66989;50.426;15.352;2023-09-19T01:08:09;97634.03;;;17.70;96.75
77799;BME280;66989;50.426;15.352;2023-09-19T01:10:39;97639.22;;;17.72;96.68
77799;BME280;66989;50.426;15.352;2023-09-19T01:13:40;97647.03;;;17.73;96.41
77799;BME280;66989;50.426;15.352;2023-09-19T01:16:19;97648.03;;;17.72;96.08
77799;BME280;66989;50.426;15.352;2023-09-19T01:29:46;97640.41;;;17.61;95.85
77799;BME280;66989;50.426;15.352;2023-09-19T01:32:16;97645.25;;;17.57;96.30
77799;BME280;66989;50.426;15.352;2023-09-19T01:34:45;97629.59;;;17.54;96.08
77799;BME280;66989;50.426;15.352;2023-09-19T01:37:15;97625.47;;;17.52;96.30
77799;BME280;66989;50.426;15.352;2023-09-19T01:39:48;97627.94;;;17.53;95.84
77799;BME280;66989;50.426;15.352;2023-09-19T01:42:28;97628.13;;;17.52;95.51
77799;BME280;66989;50.426;15.352;2023-09-19T01:45:09;97620.47;;;17.49;95.05
77799;BME280;66989;50.426;15.352;2023-09-19T01:47:43;97614.19;;;17.42;95.63
77799;BME280;66989;50.426;15.352;2023-09-19T01:50:28;97613.50;;;17.40;95.98
77799;BME280;66989;50.426;15.352;2023-09-19T01:53:04;97623.84;;;17.43;96.19
77799;BME280;66989;50.426;15.352;2023-09-19T01:55:36;97624.66;;;17.43;95.60
77799;BME280;66989;50.426;15.352;2023-09-19T01:58:10;97622.00;;;17.43;95.23
77799;BME280;66989;50.426;15.352;2023-09-19T02:00:41;97616.84;;;17.42;95.30
77799;BME280;66989;50.426;15.352;2023-09-19T02:03:09;97626.19;;;17.37;95.14
77799;BME280;66989;50.426;15.352;2023-09-19T02:05:34;97617.19;;;17.38;95.24
77799;BME280;66989;50.426;15.352;2023-09-19T02:08:00;97626.19;;;17.37;94.96
77799;BME280;66989;50.426;15.352;2023-09-19T02:10:26;97620.34;;;17.42;94.58
77799;BME280;66989;50.426;15.352;2023-09-19T02:12:51;97624.47;;;17.45;94.41
77799;BME280;66989;50.426;15.352;2023-09-19T02:15:17;97623.50;;;17.46;93.97
77799;BME280;66989;50.426;15.352;2023-09-19T02:17:45;97625.78;;;17.49;93.80
77799;BME280;66989;50.426;15.352;2023-09-19T02:20:12;97629.59;;;17.54;93.78
77799;BME280;66989;50.426;15.352;2023-09-19T02:22:37;97627.59;;;17.56;93.55
77799;BME280;66989;50.426;15.352;2023-09-19T02:25:04;97624.56;;;17.59;93.52
77799;BME280;66989;50.426;15.352;2023-09-19T02:27:30;97625.56;;;17.58;93.15
77799;BME280;66989;50.426;15.352;2023-09-19T02:29:56;97630.91;;;17.58;93.29
77799;BME280;66989;50.426;15.352;2023-09-19T02:32:21;97632.09;;;17.56;92.91
77799;BME280;66989;50.426;15.352;2023-09-19T02:34:46;97628.44;;;17.57;92.87
77799;BME280;66989;50.426;15.352;2023-09-19T02:37:12;97626.94;;;17.54;92.96
77799;BME280;66989;50.426;15.352;2023-09-19T02:39:38;97630.78;;;17.52;92.83
77799;BME280;66989;50.426;15.352;2023-09-19T02:42:04;97632.13;;;17.48;92.96
77799;BME280;66989;50.426;15.352;2023-09-19T02:44:30;97629.81;;;17.45;92.80
77799;BME280;66989;50.426;15.352;2023-09-19T02:46:55;97626.84;;;17.40;92.54
77799;BME280;66989;50.426;15.352;2023-09-19T02:49:22;97621.38;;;17.33;92.51
77799;BME280;66989;50.426;15.352;2023-09-19T02:51:47;97623.91;;;17.26;92.53
77799;BME280;66989;50.426;15.352;2023-09-19T02:54:13;97627.28;;;17.20;92.53
77799;BME280;66989;50.426;15.352;2023-09-19T02:56:38;97634.59;;;17.18;92.75
77799;BME280;66989;50.426;15.352;2023-09-19T02:59:04;97629.63;;;17.15;92.78
77799;BME280;66989;50.426;15.352;2023-09-19T03:01:29;97635.94;;;17.14;92.85
77799;BME280;66989;50.426;15.352;2023-09-19T03:03:55;97643.28;;;17.12;92.90
77799;BME280;66989;50.426;15.352;2023-09-19T03:06:21;97638.97;;;17.11;92.81
77799;BME280;66989;50.426;15.352;2023-09-19T03:08:47;97630.31;;;17.09;92.76
77799;BME280;66989;50.426;15.352;2023-09-19T03:11:14;97625.50;;;17.04;92.86
77799;BME280;66989;50.426;15.352;2023-09-19T03:13:41;97622.19;;;17.02;93.09
77799;BME280;66989;50.426;15.352;2023-09-19T03:16:07;97623.53;;;16.98;93.23
77799;BME280;66989;50.426;15.352;2023-09-19T03:18:36;97620.22;;;16.96;93.75
77799;BME280;66989;50.426;15.352;2023-09-19T03:21:02;97623.06;;;16.95;93.70
77799;BME280;66989;50.426;15.352;2023-09-19T03:23:28;97621.38;;;16.94;94.16
77799;BME280;66989;50.426;15.352;2023-09-19T03:25:54;97628.53;;;16.93;94.27
77799;BME280;66989;50.426;15.352;2023-09-19T03:28:21;97630.38;;;16.93;94.61
77799;BME280;66989;50.426;15.352;2023-09-19T03:33:25;97634.34;;;16.97;94.97
77799;BME280;66989;50.426;15.352;2023-09-19T03:35:54;97636.69;;;17.00;94.85
77799;BME280;66989;50.426;15.352;2023-09-19T03:38:20;97640.00;;;17.02;94.85
77799;BME280;66989;50.426;15.352;2023-09-19T03:40:47;97644.69;;;17.00;94.67
77799;BME280;66989;50.426;15.352;2023-09-19T03:43:12;97645.31;;;17.02;94.86
77799;BME280;66989;50.426;15.352;2023-09-19T03:45:38;97636.84;;;16.98;94.40
77799;BME280;66989;50.426;15.352;2023-09-19T03:48:08;97634.53;;;16.95;94.08
77799;BME280;66989;50.426;15.352;2023-09-19T03:50:34;97639.53;;;16.90;94.53
77799;BME280;66989;50.426;15.352;2023-09-19T03:53:00;97638.03;;;16.88;94.65
77799;BME280;66989;50.426;15.352;2023-09-19T03:55:25;97640.03;;;16.85;94.98
77799;BME280;66989;50.426;15.352;2023-09-19T03:57:50;97630.56;;;16.83;95.27
77799;BME280;66989;50.426;15.352;2023-09-19T04:00:16;97631.09;;;16.78;94.95
77799;BME280;66989;50.426;15.352;2023-09-19T04:02:46;97638.56;;;16.75;94.87
77799;BME280;66989;50.426;15.352;2023-09-19T04:05:11;97655.72;;;16.72;94.91
77799;BME280;66989;50.426;15.352;2023-09-19T04:07:37;97655.88;;;16.71;94.96
77799;BME280;66989;50.426;15.352;2023-09-19T04:10:02;97645.41;;;16.69;94.63
77799;BME280;66989;50.426;15.352;2023-09-19T04:12:28;97656.06;;;16.69;95.07
77799;BME280;66989;50.426;15.352;2023-09-19T04:14:53;97658.88;;;16.68;94.86
77799;BME280;66989;50.426;15.352;2023-09-19T04:17:19;97668.69;;;16.67;94.98
77799;BME280;66989;50.426;15.352;2023-09-19T04:19:44;97670.72;;;16.65;94.96
77799;BME280;66989;50.426;15.352;2023-09-19T04:22:10;97674.69;;;16.61;94.89
77799;BME280;66989;50.426;15.352;2023-09-19T04:24:36;97674.06;;;16.59;94.89
77799;BME280;66989;50.426;15.352;2023-09-19T04:27:03;97677.84;;;16.56;94.93
77799;BME280;66989;50.426;15.352;2023-09-19T04:29:29;97676.38;;;16.54;94.78
77799;BME280;66989;50.426;15.352;2023-09-19T04:31:55;97679.38;;;16.51;94.54
77799;BME280;66989;50.426;15.352;2023-09-19T04:34:21;97684.50;;;16.44;94.75
77799;BME280;66989;50.426;15.352;2023-09-19T04:36:46;97688.66;;;16.39;94.90
77799;BME280;66989;50.426;15.352;2023-09-19T04:39:12;97695.47;;;16.33;95.53
77799;BME280;66989;50.426;15.352;2023-09-19T04:41:38;97692.31;;;16.29;95.73
77799;BME280;66989;50.426;15.352;2023-09-19T04:44:06;97685.50;;;16.27;95.92
77799;BME280;66989;50.426;15.352;2023-09-19T04:46:33;97690.97;;;16.25;96.10
77799;BME280;66989;50.426;15.352;2023-09-19T04:48:58;97684.81;;;16.25;96.41
77799;BME280;66989;50.426;15.352;2023-09-19T04:51:24;97689.31;;;16.24;96.39
77799;BME280;66989;50.426;15.352;2023-09-19T04:53:50;97689.31;;;16.24;96.08
77799;BME280;66989;50.426;15.352;2023-09-19T04:56:16;97695.47;;;16.25;96.26
77799;BME280;66989;50.426;15.352;2023-09-19T04:58:41;97706.09;;;16.25;96.75
77799;BME280;66989;50.426;15.352;2023-09-19T05:01:06;97708.78;;;16.25;96.56
77799;BME280;66989;50.426;15.352;2023-09-19T05:03:36;97709.47;;;16.27;96.47
77799;BME280;66989;50.426;15.352;2023-09-19T05:06:02;97710.28;;;16.27;96.58
77799;BME280;66989;50.426;15.352;2023-09-19T05:08:27;97708.28;;;16.29;96.47
77799;BME280;66989;50.426;15.352;2023-09-19T05:10:53;97705.63;;;16.29;96.31
77799;BME280;66989;50.426;15.352;2023-09-19T05:13:18;97703.78;;;16.30;96.45
77799;BME280;66989;50.426;15.352;2023-09-19T05:15:43;97717.78;;;16.32;96.46
77799;BME280;66989;50.426;15.352;2023-09-19T05:18:09;97711.28;;;16.34;96.24
77799;BME280;66989;50.426;15.352;2023-09-19T05:20:35;97712.28;;;16.33;95.87
77799;BME280;66989;50.426;15.352;2023-09-19T05:23:05;97717.44;;;16.35;96.17
77799;BME280;66989;50.426;15.352;2023-09-19T05:25:33;97723.44;;;16.37;95.88
77799;BME280;66989;50.426;15.352;2023-09-19T05:28:02;97724.25;;;16.38;95.65
77799;BME280;66989;50.426;15.352;2023-09-19T05:30:29;97724.25;;;16.38;95.80
77799;BME280;66989;50.426;15.352;2023-09-19T05:32:55;97725.09;;;16.38;95.57
77799;BME280;66989;50.426;15.352;2023-09-19T05:35:21;97714.75;;;16.35;95.42
77799;BME280;66989;50.426;15.352;2023-09-19T05:37:50;97718.44;;;16.34;95.61
77799;BME280;66989;50.426;15.352;2023-09-19T05:40:17;97716.91;;;16.31;95.28
77799;BME280;66989;50.426;15.352;2023-09-19T05:42:43;97710.75;;;16.31;95.21
77799;BME280;66989;50.426;15.352;2023-09-19T05:45:09;97722.59;;;16.28;95.17
77799;BME280;66989;50.426;15.352;2023-09-19T05:47:43;97718.41;;;16.26;95.41
77799;BME280;66989;50.426;15.352;2023-09-19T05:50:11;97714.09;;;16.25;95.50
77799;BME280;66989;50.426;15.352;2023-09-19T05:52:39;97714.09;;;16.25;95.79
77799;BME280;66989;50.426;15.352;2023-09-19T05:55:06;97723.91;;;16.24;95.54
77799;BME280;66989;50.426;15.352;2023-09-19T05:57:35;97713.91;;;16.26;95.88
77799;BME280;66989;50.426;15.352;2023-09-19T06:00:01;97719.75;;;16.30;95.98
77799;BME280;66989;50.426;15.352;2023-09-19T06:02:27;97728.25;;;16.33;95.88
77799;BME280;66989;50.426;15.352;2023-09-19T06:04:55;97732.25;;;16.38;95.84
77799;BME280;66989;50.426;15.352;2023-09-19T06:07:21;97736.22;;;16.42;95.88
77799;BME280;66989;50.426;15.352;2023-09-19T06:09:56;97739.22;;;16.47;95.73
77799;BME280;66989;50.426;15.352;2023-09-19T06:12:21;97739.56;;;16.52;95.73
77799;BME280;66989;50.426;15.352;2023-09-19T06:14:46;97738.94;;;16.58;95.48
77799;BME280;66989;50.426;15.352;2023-09-19T06:17:12;97748.09;;;16.64;95.42
77799;BME280;66989;50.426;15.352;2023-09-19T06:19:38;97751.72;;;16.71;95.18
77799;BME280;66989;50.426;15.352;2023-09-19T06:22:03;97746.75;;;16.76;94.79
77799;BME280;66989;50.426;15.352;2023-09-19T06:24:29;97752.22;;;16.82;94.85
77799;BME280;66989;50.426;15.352;2023-09-19T06:26:54;97753.22;;;16.90;94.25
77799;BME280;66989;50.426;15.352;2023-09-19T06:29:20;97748.88;;;16.97;94.14
77799;BME280;66989;50.426;15.352;2023-09-19T06:31:46;97761.19;;;17.06;93.67
77799;BME280;66989;50.426;15.352;2023-09-19T06:34:12;97764.81;;;17.13;93.29
77799;BME280;66989;50.426;15.352;2023-09-19T06:36:40;97769.97;;;17.23;92.98
77799;BME280;66989;50.426;15.352;2023-09-19T06:39:06;97773.47;;;17.31;92.52
77799;BME280;66989;50.426;15.352;2023-09-19T06:41:32;97774.25;;;17.40;92.32
77799;BME280;66989;50.426;15.352;2023-09-19T06:43:57;97769.56;;;17.50;91.60
77799;BME280;66989;50.426;15.352;2023-09-19T06:46:23;97780.69;;;17.62;91.43
77799;BME280;66989;50.426;15.352;2023-09-19T06:48:48;97789.84;;;17.76;90.96
77799;BME280;66989;50.426;15.352;2023-09-19T06:51:14;97793.63;;;17.89;90.52
77799;BME280;66989;50.426;15.352;2023-09-19T06:53:41;97794.38;;;18.06;89.24
77799;BME280;66989;50.426;15.352;2023-09-19T06:56:07;97796.47;;;18.19;88.27
77799;BME280;66989;50.426;15.352;2023-09-19T06:58:32;97796.88;;;18.39;87.96
77799;BME280;66989;50.426;15.352;2023-09-19T07:00:57;97801.19;;;18.63;87.38
77799;BME280;66989;50.426;15.352;2023-09-19T07:03:23;97806.28;;;18.81;85.96
77799;BME280;66989;50.426;15.352;2023-09-19T07:05:51;97802.94;;;19.02;85.29
77799;BME280;66989;50.426;15.352;2023-09-19T07:08:18;97804.72;;;19.24;84.27
77799;BME280;66989;50.426;15.352;2023-09-19T07:10:45;97811.69;;;19.48;83.20
77799;BME280;66989;50.426;15.352;2023-09-19T07:13:14;97815.47;;;19.68;81.93
77799;BME280;66989;50.426;15.352;2023-09-19T07:15:42;97818.34;;;19.82;80.35
77799;BME280;66989;50.426;15.352;2023-09-19T07:18:12;97832.81;;;19.87;80.06
77799;BME280;66989;50.426;15.352;2023-09-19T07:20:40;97838.16;;;19.87;80.11
77799;BME280;66989;50.426;15.352;2023-09-19T07:23:23;97836.91;;;19.83;80.19
77799;BME280;66989;50.426;15.352;2023-09-19T07:25:49;97844.66;;;19.78;79.74
77799;BME280;66989;50.426;15.352;2023-09-19T07:28:16;97839.16;;;19.71;80.09
77799;BME280;66989;50.426;15.352;2023-09-19T07:30:41;97843.03;;;19.69;80.59
77799;BME280;66989;50.426;15.352;2023-09-19T07:33:07;97844.41;;;19.65;80.35
77799;BME280;66989;50.426;15.352;2023-09-19T07:35:36;97844.63;;;19.63;80.90
77799;BME280;66989;50.426;15.352;2023-09-19T07:38:02;97842.28;;;19.60;80.61
77799;BME280;66989;50.426;15.352;2023-09-19T07:40:28;97850.03;;;19.55;80.50
77799;BME280;66989;50.426;15.352;2023-09-19T07:42:57;97855.28;;;19.49;81.04
77799;BME280;66989;50.426;15.352;2023-09-19T07:45:29;97848.00;;;19.42;81.09
77799;BME280;66989;50.426;15.352;2023-09-19T07:47:55;97854.06;;;19.36;81.07
77799;BME280;66989;50.426;15.352;2023-09-19T07:50:21;97853.75;;;19.31;81.22
77799;BME280;66989;50.426;15.352;2023-09-19T07:52:47;97857.16;;;19.25;81.60
77799;BME280;66989;50.426;15.352;2023-09-19T07:55:13;97857.53;;;19.22;81.87
77799;BME280;66989;50.426;15.352;2023-09-19T07:57:45;97858.53;;;19.21;81.79
77799;BME280;66989;50.426;15.352;2023-09-19T08:00:12;97865.72;;;19.21;82.01
77799;BME280;66989;50.426;15.352;2023-09-19T08:02:38;97865.56;;;19.22;81.58
77799;BME280;66989;50.426;15.352;2023-09-19T08:05:04;97865.38;;;19.24;81.60
77799;BME280;66989;50.426;15.352;2023-09-19T08:07:38;97871.84;;;19.29;81.40
77799;BME280;66989;50.426;15.352;2023-09-19T08:10:05;97872.78;;;19.36;81.17
77799;BME280;66989;50.426;15.352;2023-09-19T08:12:38;97860.84;;;19.47;80.89
77799;BME280;66989;50.426;15.352;2023-09-19T08:15:11;97866.16;;;19.62;80.04
77799;BME280;66989;50.426;15.352;2023-09-19T08:17:37;97870.44;;;19.71;79.31
77799;BME280;66989;50.426;15.352;2023-09-19T08:20:02;97875.47;;;19.74;79.12
77799;BME280;66989;50.426;15.352;2023-09-19T08:22:30;97864.38;;;19.77;78.60
77799;BME280;66989;50.426;15.352;2023-09-19T08:24:57;97880.06;;;19.80;79.32
77799;BME280;66989;50.426;15.352;2023-09-19T08:27:23;97873.97;;;19.86;79.26
77799;BME280;66989;50.426;15.352;2023-09-19T08:29:52;97879.81;;;19.90;79.29
77799;BME280;66989;50.426;15.352;2023-09-19T08:32:17;97875.56;;;19.95;79.11
77799;BME280;66989;50.426;15.352;2023-09-19T08:34:45;97886.16;;;20.04;78.73
77799;BME280;66989;50.426;15.352;2023-09-19T08:37:10;97888.28;;;20.08;78.70
77799;BME280;66989;50.426;15.352;2023-09-19T08:39:35;97885.50;;;20.16;78.29
77799;BME280;66989;50.426;15.352;2023-09-19T08:42:02;97883.59;;;20.25;78.12
77799;BME280;66989;50.426;15.352;2023-09-19T08:44:28;97887.91;;;20.26;76.94
77799;BME280;66989;50.426;15.352;2023-09-19T08:47:27;97889.47;;;20.35;76.88
77799;BME280;66989;50.426;15.352;2023-09-19T08:50:08;97899.88;;;20.45;77.00
77799;BME280;66989;50.426;15.352;2023-09-19T08:52:43;97898.59;;;20.56;76.35
77799;BME280;66989;50.426;15.352;2023-09-19T08:55:13;97896.97;;;20.76;75.85
77799;BME280;66989;50.426;15.352;2023-09-19T08:57:45;97906.31;;;21.02;74.52
77799;BME280;66989;50.426;15.352;2023-09-19T09:00:14;97900.00;;;21.31;74.21
77799;BME280;66989;50.426;15.352;2023-09-19T09:02:43;97902.84;;;21.50;73.41
77799;BME280;66989;50.426;15.352;2023-09-19T09:05:10;97899.66;;;21.62;72.78
77799;BME280;66989;50.426;15.352;2023-09-19T09:07:37;97895.28;;;21.82;72.07
77799;BME280;66989;50.426;15.352;2023-09-19T09:10:03;97894.41;;;22.10;71.28
77799;BME280;66989;50.426;15.352;2023-09-19T09:12:29;97900.31;;;22.33;70.24
77799;BME280;66989;50.426;15.352;2023-09-19T09:14:56;97901.41;;;22.45;69.46
77799;BME280;66989;50.426;15.352;2023-09-19T09:17:25;97887.25;;;22.71;69.31
77799;BME280;66989;50.426;15.352;2023-09-19T09:19:54;97886.09;;;23.00;67.50
77799;BME280;66989;50.426;15.352;2023-09-19T09:22:19;97880.34;;;23.17;66.73
77799;BME280;66989;50.426;15.352;2023-09-19T09:25:05;97886.75;;;23.29;65.99
77799;BME280;66989;50.426;15.352;2023-09-19T09:27:31;97886.59;;;23.44;65.81
77799;BME280;66989;50.426;15.352;2023-09-19T09:29:58;97898.41;;;23.56;65.18
77799;BME280;66989;50.426;15.352;2023-09-19T09:32:30;97902.31;;;23.53;64.13
77799;BME280;66989;50.426;15.352;2023-09-19T09:35:00;97900.66;;;23.39;63.18
77799;BME280;66989;50.426;15.352;2023-09-19T09:37:26;97907.25;;;23.23;63.03
77799;BME280;66989;50.426;15.352;2023-09-19T09:39:57;97899.34;;;23.08;63.89
77799;BME280;66989;50.426;15.352;2023-09-19T09:42:43;97903.47;;;22.91;64.80
77799;BME280;66989;50.426;15.352;2023-09-19T09:47:47;97903.00;;;22.68;65.33
77799;BME280;66989;50.426;15.352;2023-09-19T09:50:35;97920.53;;;22.64;65.58
77799;BME280;66989;50.426;15.352;2023-09-19T09:53:25;97911.84;;;22.62;66.63
77799;BME280;66989;50.426;15.352;2023-09-19T09:58:49;97908.00;;;22.84;65.46
77799;BME280;66989;50.426;15.352;2023-09-19T10:01:16;97897.69;;;23.01;65.32
77799;BME280;66989;50.426;15.352;2023-09-19T10:03:43;97904.41;;;23.51;64.38
77799;BME280;66989;50.426;15.352;2023-09-19T10:06:16;97898.50;;;24.34;62.57
77799;BME280;66989;50.426;15.352;2023-09-19T10:09:05;97894.38;;;25.14;59.01
77799;BME280;66989;50.426;15.352;2023-09-19T10:11:47;97900.13;;;25.25;56.78
77799;BME280;66989;50.426;15.352;2023-09-19T10:14:25;97905.53;;;25.25;56.58
77799;BME280;66989;50.426;15.352;2023-09-19T10:16:56;97904.75;;;25.18;55.83
77799;BME280;66989;50.426;15.352;2023-09-19T10:19:30;97907.56;;;25.29;55.64
77799;BME280;66989;50.426;15.352;2023-09-19T10:22:01;97905.41;;;25.45;54.91
77799;BME280;66989;50.426;15.352;2023-09-19T10:24:28;97902.03;;;25.49;54.27
77799;BME280;66989;50.426;15.352;2023-09-19T10:26:54;97905.09;;;25.28;54.88
77799;BME280;66989;50.426;15.352;2023-09-19T10:29:21;97910.28;;;25.29;56.00
77799;BME280;66989;50.426;15.352;2023-09-19T10:31:52;97906.84;;;25.16;56.43
77799;BME280;66989;50.426;15.352;2023-09-19T10:34:19;97910.41;;;25.09;56.56
77799;BME280;66989;50.426;15.352;2023-09-19T10:36:47;97911.16;;;24.92;56.47
77799;BME280;66989;50.426;15.352;2023-09-19T10:39:16;97908.56;;;25.03;57.05
77799;BME280;66989;50.426;15.352;2023-09-19T10:41:53;97913.66;;;24.80;56.52
77799;BME280;66989;50.426;15.352;2023-09-19T10:44:25;97915.19;;;24.62;55.91
77799;BME280;66989;50.426;15.352;2023-09-19T10:46:58;97911.22;;;24.72;55.62
77799;BME280;66989;50.426;15.352;2023-09-19T10:49:31;97919.13;;;24.67;55.47
77799;BME280;66989;50.426;15.352;2023-09-19T10:51:59;97905.97;;;24.83;54.59
77799;BME280;66989;50.426;15.352;2023-09-19T10:54:33;97911.41;;;25.15;53.61
77799;BME280;66989;50.426;15.352;2023-09-19T10:57:02;97905.53;;;25.25;53.34
77799;BME280;66989;50.426;15.352;2023-09-19T10:59:30;97913.44;;;25.26;52.90
77799;BME280;66989;50.426;15.352;2023-09-19T11:02:16;97913.44;;;25.83;52.67
77799;BME280;66989;50.426;15.352;2023-09-19T11:04:52;97902.94;;;26.11;51.60
77799;BME280;66989;50.426;15.352;2023-09-19T11:07:20;97910.03;;;26.31;51.03
77799;BME280;66989;50.426;15.352;2023-09-19T11:09:58;97905.66;;;26.11;50.67
77799;BME280;66989;50.426;15.352;2023-09-19T11:14:59;97891.19;;;25.81;51.83
77799;BME280;66989;50.426;15.352;2023-09-19T11:17:35;97894.53;;;25.51;51.76
77799;BME280;66989;50.426;15.352;2023-09-19T11:30:46;97884.81;;;26.55;50.67
77799;BME280;66989;50.426;15.352;2023-09-19T11:41:38;97884.19;;;26.72;48.71
77799;BME280;66989;50.426;15.352;2023-09-19T11:49:25;97884.28;;;26.95;46.45
77799;BME280;66989;50.426;15.352;2023-09-19T11:51:55;97878.84;;;27.13;46.13
77799;BME280;66989;50.426;15.352;2023-09-19T11:54:22;97889.19;;;26.86;45.69
77799;BME280;66989;50.426;15.352;2023-09-19T11:56:51;97883.38;;;26.71;46.12
77799;BME280;66989;50.426;15.352;2023-09-19T11:59:23;97879.75;;;27.49;45.13
77799;BME280;66989;50.426;15.352;2023-09-19T12:01:54;97887.53;;;28.28;44.08
77799;BME280;66989;50.426;15.352;2023-09-19T12:04:43;97889.19;;;28.52;43.29
77799;BME280;66989;50.426;15.352;2023-09-19T12:07:12;97886.44;;;28.64;42.39
77799;BME280;66989;50.426;15.352;2023-09-19T12:09:45;97865.72;;;29.32;41.37
77799;BME280;66989;50.426;15.352;2023-09-19T12:12:24;97867.97;;;30.68;39.79
77799;BME280;66989;50.426;15.352;2023-09-19T12:14:54;97868.25;;;31.79;37.94
77799;BME280;66989;50.426;15.352;2023-09-19T12:17:20;97871.03;;;33.00;34.97
77799;BME280;66989;50.426;15.352;2023-09-19T12:19:53;97859.66;;;33.59;33.44
77799;BME280;66989;50.426;15.352;2023-09-19T12:22:19;97858.72;;;34.25;32.84
77799;BME280;66989;50.426;15.352;2023-09-19T12:24:46;97865.13;;;33.74;32.95
77799;BME280;66989;50.426;15.352;2023-09-19T12:27:13;97861.84;;;33.82;33.22
77799;BME280;66989;50.426;15.352;2023-09-19T12:29:46;97862.38;;;33.79;31.91
77799;BME280;66989;50.426;15.352;2023-09-19T12:32:14;97858.97;;;34.44;31.38
77799;BME280;66989;50.426;15.352;2023-09-19T12:34:42;97852.28;;;35.20;30.31
77799;BME280;66989;50.426;15.352;2023-09-19T12:37:16;97845.78;;;36.08;29.17
77799;BME280;66989;50.426;15.352;2023-09-19T12:39:52;97852.50;;;36.87;28.77
77799;BME280;66989;50.426;15.352;2023-09-19T12:42:22;97847.19;;;37.66;26.88
77799;BME280;66989;50.426;15.352;2023-09-19T12:44:50;97853.16;;;38.47;26.46
77799;BME280;66989;50.426;15.352;2023-09-19T12:47:23;97850.09;;;39.13;25.28
77799;BME280;66989;50.426;15.352;2023-09-19T12:50:11;97840.31;;;39.96;23.74
77799;BME280;66989;50.426;15.352;2023-09-19T12:55:20;97846.50;;;39.48;23.96
77799;BME280;66989;50.426;15.352;2023-09-19T12:58:15;97829.94;;;39.48;24.19
77799;BME280;66989;50.426;15.352;2023-09-19T13:00:45;97831.41;;;39.99;24.07
77799;BME280;66989;50.426;15.352;2023-09-19T13:03:12;97838.69;;;39.95;24.60
77799;BME280;66989;50.426;15.352;2023-09-19T13:06:00;97833.16;;;39.95;22.26
77799;BME280;66989;50.426;15.352;2023-09-19T13:08:32;97829.19;;;39.57;21.76
77799;BME280;66989;50.426;15.352;2023-09-19T13:11:04;97829.66;;;39.14;22.43
77799;BME280;66989;50.426;15.352;2023-09-19T13:16:56;97830.22;;;37.45;24.18
77799;BME280;66989;50.426;15.352;2023-09-19T13:19:45;97825.69;;;36.60;24.73
77799;BME280;66989;50.426;15.352;2023-09-19T13:22:40;97833.00;;;35.98;25.55
77799;BME280;66989;50.426;15.352;2023-09-19T13:25:12;97835.41;;;35.76;26.27
77799;BME280;66989;50.426;15.352;2023-09-19T13:27:50;97822.25;;;35.38;27.78
77799;BME280;66989;50.426;15.352;2023-09-19T13:30:18;97827.31;;;35.21;26.96
77799;BME280;66989;50.426;15.352;2023-09-19T13:32:44;97823.41;;;34.93;27.73
77799;BME280;66989;50.426;15.352;2023-09-19T13:35:10;97819.50;;;34.55;27.39
77799;BME280;66989;50.426;15.352;2023-09-19T13:37:38;97815.72;;;34.35;28.35
77799;BME280;66989;50.426;15.352;2023-09-19T13:40:14;97809.34;;;33.60;28.92
77799;BME280;66989;50.426;15.352;2023-09-19T13:42:41;97822.44;;;33.07;29.32
77799;BME280;66989;50.426;15.352;2023-09-19T13:45:07;97826.97;;;32.60;29.15
77799;BME280;66989;50.426;15.352;2023-09-19T13:47:37;97825.38;;;32.12;29.80
77799;BME280;66989;50.426;15.352;2023-09-19T13:50:03;97815.63;;;31.42;30.37
77799;BME280;66989;50.426;15.352;2023-09-19T13:52:30;97827.50;;;30.98;31.59